sensor_id;sensor_type;location;lat;lon;timestamp;pressure;altitude;pressure_sealevel;temperature;humidity
10700;BME280;5401;41.986;21.452;2023-09-08T00:00:03;98661.81;;;23.52;47.58
10700;BME280;5401;41.986;21.452;2023-09-08T00:02:31;98668.97;;;23.48;47.66
10700;BME280;5401;41.986;21.452;2023-09-08T00:04:58;98669.84;;;23.43;48.34
10700;BME280;5401;41.986;21.452;2023-09-08T00:07:26;98639.94;;;23.24;48.23
10700;BME280;5401;41.986;21.452;2023-09-08T00:09:55;98658.47;;;23.31;48.33
10700;BME280;5401;41.986;21.452;2023-09-08T00:12:22;98662.88;;;23.27;48.20
10700;BME280;5401;41.986;21.452;2023-09-08T00:14:49;98664.53;;;23.24;48.63
10700;BME280;5401;41.986;21.452;2023-09-08T00:17:17;98662.34;;;23.21;48.56
10700;BME280;5401;41.986;21.452;2023-09-08T00:19:44;98660.75;;;23.15;48.77
10700;BME280;5401;41.986;21.452;2023-09-08T00:22:12;98675.81;;;23.12;48.36
10700;BME280;5401;41.986;21.452;2023-09-08T00:24:39;98669.00;;;23.10;48.41
10700;BME280;5401;41.986;21.452;2023-09-08T00:27:08;98667.06;;;23.10;48.63
10700;BME280;5401;41.986;21.452;2023-09-08T00:29:36;98668.47;;;23.08;48.99
10700;BME280;5401;41.986;21.452;2023-09-08T00:32:04;98664.41;;;23.05;48.87
10700;BME280;5401;41.986;21.452;2023-09-08T00:34:31;98666.31;;;23.05;48.96
10700;BME280;5401;41.986;21.452;2023-09-08T00:36:59;98665.22;;;23.06;49.05
10700;BME280;5401;41.986;21.452;2023-09-08T00:39:34;98666.31;;;23.05;48.79
10700;BME280;5401;41.986;21.452;2023-09-08T00:42:02;98666.34;;;23.00;49.09
10700;BME280;5401;41.986;21.452;2023-09-08T00:44:31;98664.13;;;23.02;49.43
10700;BME280;5401;41.986;21.452;2023-09-08T00:46:58;98667.59;;;23.12;49.19
10700;BME280;5401;41.986;21.452;2023-09-08T00:49:25;98652.47;;;23.29;48.95
10700;BME280;5401;41.986;21.452;2023-09-08T00:51:54;98656.13;;;23.48;48.99
10700;BME280;5401;41.986;21.452;2023-09-08T00:54:22;98653.25;;;23.63;48.45
10700;BME280;5401;41.986;21.452;2023-09-08T00:56:52;98644.69;;;23.74;48.41
10700;BME280;5401;41.986;21.452;2023-09-08T00:59:22;98664.53;;;23.85;48.36
10700;BME280;5401;41.986;21.452;2023-09-08T01:01:52;98654.88;;;23.92;48.34
10700;BME280;5401;41.986;21.452;2023-09-08T01:04:20;98659.31;;;23.88;48.06
10700;BME280;5401;41.986;21.452;2023-09-08T01:06:48;98651.28;;;23.73;48.21
10700;BME280;5401;41.986;21.452;2023-09-08T01:09:16;98646.47;;;23.61;48.60
10700;BME280;5401;41.986;21.452;2023-09-08T01:11:44;98647.38;;;23.46;49.18
10700;BME280;5401;41.986;21.452;2023-09-08T01:14:12;98643.69;;;23.32;49.21
10700;BME280;5401;41.986;21.452;2023-09-08T01:16:40;98643.47;;;23.24;49.03
10700;BME280;5401;41.986;21.452;2023-09-08T01:19:12;98639.97;;;23.19;48.92
10700;BME280;5401;41.986;21.452;2023-09-08T01:22:11;98639.75;;;23.10;49.25
10700;BME280;5401;41.986;21.452;2023-09-08T01:27:52;98630.09;;;22.90;49.39
10700;BME280;5401;41.986;21.452;2023-09-08T01:30:21;98639.41;;;22.89;50.02
10700;BME280;5401;41.986;21.452;2023-09-08T01:32:51;98630.94;;;22.80;49.59
10700;BME280;5401;41.986;21.452;2023-09-08T01:35:19;98636.13;;;22.82;50.23
10700;BME280;5401;41.986;21.452;2023-09-08T01:37:48;98631.25;;;22.79;50.06
10700;BME280;5401;41.986;21.452;2023-09-08T01:40:17;98611.13;;;22.60;49.82
10700;BME280;5401;41.986;21.452;2023-09-08T01:42:45;98631.31;;;22.69;50.34
10700;BME280;5401;41.986;21.452;2023-09-08T01:45:13;98621.78;;;22.66;50.50
10700;BME280;5401;41.986;21.452;2023-09-08T01:47:40;98626.38;;;22.66;50.18
10700;BME280;5401;41.986;21.452;2023-09-08T01:50:08;98632.44;;;22.63;50.54
10700;BME280;5401;41.986;21.452;2023-09-08T01:52:36;98632.97;;;22.60;50.23
10700;BME280;5401;41.986;21.452;2023-09-08T01:55:04;98625.91;;;22.59;50.63
10700;BME280;5401;41.986;21.452;2023-09-08T01:57:34;98638.47;;;22.55;50.29
10700;BME280;5401;41.986;21.452;2023-09-08T02:00:02;98641.75;;;22.52;50.85
10700;BME280;5401;41.986;21.452;2023-09-08T02:02:31;98630.88;;;22.47;50.58
10700;BME280;5401;41.986;21.452;2023-09-08T02:04:58;98636.91;;;22.44;51.05
10700;BME280;5401;41.986;21.452;2023-09-08T02:07:26;98637.19;;;22.43;51.02
10700;BME280;5401;41.986;21.452;2023-09-08T02:09:53;98639.63;;;22.44;51.27
10700;BME280;5401;41.986;21.452;2023-09-08T02:12:21;98637.19;;;22.43;51.07
10700;BME280;5401;41.986;21.452;2023-09-08T02:14:50;98630.91;;;22.42;51.27
10700;BME280;5401;41.986;21.452;2023-09-08T02:17:18;98639.09;;;22.42;50.82
10700;BME280;5401;41.986;21.452;2023-09-08T02:19:45;98636.38;;;22.42;50.79
10700;BME280;5401;41.986;21.452;2023-09-08T02:22:13;98630.91;;;22.42;50.91
10700;BME280;5401;41.986;21.452;2023-09-08T02:24:41;98633.66;;;22.42;50.98
10700;BME280;5401;41.986;21.452;2023-09-08T02:27:08;98630.91;;;22.42;51.18
10700;BME280;5401;41.986;21.452;2023-09-08T02:29:37;98625.72;;;22.41;51.42
10700;BME280;5401;41.986;21.452;2023-09-08T02:32:06;98621.94;;;22.37;50.98
10700;BME280;5401;41.986;21.452;2023-09-08T02:34:34;98621.94;;;22.37;51.13
10700;BME280;5401;41.986;21.452;2023-09-08T02:37:04;98623.53;;;22.38;51.71
10700;BME280;5401;41.986;21.452;2023-09-08T02:39:32;98619.19;;;22.37;51.31
10700;BME280;5401;41.986;21.452;2023-09-08T02:42:00;98624.66;;;22.37;51.23
10700;BME280;5401;41.986;21.452;2023-09-08T02:44:27;98616.75;;;22.35;51.81
10700;BME280;5401;41.986;21.452;2023-09-08T02:46:55;98614.81;;;22.36;51.43
10700;BME280;5401;41.986;21.452;2023-09-08T02:49:24;98610.75;;;22.33;51.23
10700;BME280;5401;41.986;21.452;2023-09-08T02:51:51;98603.69;;;22.32;51.47
10700;BME280;5401;41.986;21.452;2023-09-08T02:54:19;98606.94;;;22.29;51.73
10700;BME280;5401;41.986;21.452;2023-09-08T02:56:46;98606.16;;;22.29;52.15
10700;BME280;5401;41.986;21.452;2023-09-08T02:59:14;98598.53;;;22.26;51.42
10700;BME280;5401;41.986;21.452;2023-09-08T03:01:41;98609.72;;;22.24;51.73
10700;BME280;5401;41.986;21.452;2023-09-08T03:04:09;98602.06;;;22.21;51.51
10700;BME280;5401;41.986;21.452;2023-09-08T03:06:38;98605.34;;;22.23;52.16
10700;BME280;5401;41.986;21.452;2023-09-08T03:09:05;98606.47;;;22.22;52.25
10700;BME280;5401;41.986;21.452;2023-09-08T03:11:32;98601.81;;;22.23;52.11
10700;BME280;5401;41.986;21.452;2023-09-08T03:14:00;98601.53;;;22.24;52.23
10700;BME280;5401;41.986;21.452;2023-09-08T03:16:27;98600.19;;;22.22;51.90
10700;BME280;5401;41.986;21.452;2023-09-08T03:18:55;98596.94;;;22.20;52.48
10700;BME280;5401;41.986;21.452;2023-09-08T03:21:22;98604.00;;;22.21;52.50
10700;BME280;5401;41.986;21.452;2023-09-08T03:23:51;98598.28;;;22.18;52.06
10700;BME280;5401;41.986;21.452;2023-09-08T03:26:18;98590.63;;;22.10;52.54
10700;BME280;5401;41.986;21.452;2023-09-08T03:28:46;98600.47;;;22.20;52.48
10700;BME280;5401;41.986;21.452;2023-09-08T03:31:13;98598.00;;;22.19;52.50
10700;BME280;5401;41.986;21.452;2023-09-08T03:33:41;98602.06;;;22.21;52.18
10700;BME280;5401;41.986;21.452;2023-09-08T03:36:08;98601.28;;;22.21;52.84
10700;BME280;5401;41.986;21.452;2023-09-08T03:38:36;98599.66;;;22.20;52.65
10700;BME280;5401;41.986;21.452;2023-09-08T03:41:06;98599.94;;;22.19;52.43
10700;BME280;5401;41.986;21.452;2023-09-08T03:43:33;98605.38;;;22.19;52.21
10700;BME280;5401;41.986;21.452;2023-09-08T03:46:01;98612.22;;;22.16;52.29
10700;BME280;5401;41.986;21.452;2023-09-08T03:48:28;98604.03;;;22.16;52.82
10700;BME280;5401;41.986;21.452;2023-09-08T03:50:56;98602.38;;;22.15;52.65
10700;BME280;5401;41.986;21.452;2023-09-08T03:53:23;98608.38;;;22.12;52.84
10700;BME280;5401;41.986;21.452;2023-09-08T03:55:51;98592.88;;;22.03;52.91
10700;BME280;5401;41.986;21.452;2023-09-08T03:58:20;98611.38;;;22.11;52.57
10700;BME280;5401;41.986;21.452;2023-09-08T04:00:47;98617.66;;;22.11;52.67
10700;BME280;5401;41.986;21.452;2023-09-08T04:03:14;98614.38;;;22.09;52.69
10700;BME280;5401;41.986;21.452;2023-09-08T04:05:42;98613.84;;;22.07;53.02
10700;BME280;5401;41.986;21.452;2023-09-08T04:08:09;98614.41;;;21.99;53.12
10700;BME280;5401;41.986;21.452;2023-09-08T04:10:37;98619.06;;;22.04;53.40
10700;BME280;5401;41.986;21.452;2023-09-08T04:13:04;98622.88;;;22.03;53.21
10700;BME280;5401;41.986;21.452;2023-09-08T04:15:33;98623.44;;;22.00;53.62
10700;BME280;5401;41.986;21.452;2023-09-08T04:18:00;98622.59;;;21.99;53.32
10700;BME280;5401;41.986;21.452;2023-09-08T04:20:28;98619.88;;;21.99;53.36
10700;BME280;5401;41.986;21.452;2023-09-08T04:22:55;98616.06;;;21.95;52.98
10700;BME280;5401;41.986;21.452;2023-09-08T04:25:23;98609.81;;;22.00;53.37
10700;BME280;5401;41.986;21.452;2023-09-08T04:27:51;98613.34;;;22.00;52.92
10700;BME280;5401;41.986;21.452;2023-09-08T04:30:18;98602.16;;;22.02;52.84
10700;BME280;5401;41.986;21.452;2023-09-08T04:32:47;98617.13;;;22.04;52.99
10700;BME280;5401;41.986;21.452;2023-09-08T04:35:14;98617.94;;;22.05;52.88
10700;BME280;5401;41.986;21.452;2023-09-08T04:37:42;98625.06;;;22.06;52.97
10700;BME280;5401;41.986;21.452;2023-09-08T04:40:10;98621.47;;;22.05;53.04
10700;BME280;5401;41.986;21.452;2023-09-08T04:42:37;98623.13;;;22.06;53.29
10700;BME280;5401;41.986;21.452;2023-09-08T04:45:05;98624.75;;;22.07;53.10
10700;BME280;5401;41.986;21.452;2023-09-08T04:47:33;98627.22;;;22.09;52.76
10700;BME280;5401;41.986;21.452;2023-09-08T04:50:02;98622.28;;;22.11;53.44
10700;BME280;5401;41.986;21.452;2023-09-08T04:52:30;98620.94;;;22.08;53.54
10700;BME280;5401;41.986;21.452;2023-09-08T04:54:57;98628.28;;;22.13;52.70
10700;BME280;5401;41.986;21.452;2023-09-08T04:57:25;98623.66;;;22.13;53.08
10700;BME280;5401;41.986;21.452;2023-09-08T04:59:52;98622.81;;;22.18;53.35
10700;BME280;5401;41.986;21.452;2023-09-08T05:02:19;98612.22;;;22.16;53.21
10700;BME280;5401;41.986;21.452;2023-09-08T05:04:47;98627.16;;;22.23;53.14
10700;BME280;5401;41.986;21.452;2023-09-08T05:07:16;98622.78;;;22.27;52.92
10700;BME280;5401;41.986;21.452;2023-09-08T05:09:45;98627.69;;;22.30;53.10
10700;BME280;5401;41.986;21.452;2023-09-08T05:12:14;98631.19;;;22.36;52.83
10700;BME280;5401;41.986;21.452;2023-09-08T05:14:41;98632.84;;;22.37;52.51
10700;BME280;5401;41.986;21.452;2023-09-08T05:17:09;98629.00;;;22.38;52.63
10700;BME280;5401;41.986;21.452;2023-09-08T05:19:36;98628.19;;;22.42;52.35
10700;BME280;5401;41.986;21.452;2023-09-08T05:22:05;98633.06;;;22.50;53.11
10700;BME280;5401;41.986;21.452;2023-09-08T05:24:34;98635.47;;;22.56;52.66
10700;BME280;5401;41.986;21.452;2023-09-08T05:27:01;98637.63;;;22.64;52.88
10700;BME280;5401;41.986;21.452;2023-09-08T05:29:29;98644.38;;;22.72;52.30
10700;BME280;5401;41.986;21.452;2023-09-08T05:31:56;98644.06;;;22.78;52.27
10700;BME280;5401;41.986;21.452;2023-09-08T05:34:23;98644.56;;;22.85;52.62
10700;BME280;5401;41.986;21.452;2023-09-08T05:36:51;98638.25;;;22.94;52.30
10700;BME280;5401;41.986;21.452;2023-09-08T05:39:18;98643.69;;;22.99;52.24
10700;BME280;5401;41.986;21.452;2023-09-08T05:41:47;98640.34;;;23.07;51.89
10700;BME280;5401;41.986;21.452;2023-09-08T05:44:15;98644.38;;;23.15;51.83
10700;BME280;5401;41.986;21.452;2023-09-08T05:46:42;98645.97;;;23.21;51.82
10700;BME280;5401;41.986;21.452;2023-09-08T05:49:09;98649.47;;;23.26;52.04
10700;BME280;5401;41.986;21.452;2023-09-08T05:51:37;98645.59;;;23.32;51.64
10700;BME280;5401;41.986;21.452;2023-09-08T05:54:04;98644.19;;;23.34;51.64
10700;BME280;5401;41.986;21.452;2023-09-08T05:56:33;98654.00;;;23.40;51.33
10700;BME280;5401;41.986;21.452;2023-09-08T05:59:02;98649.88;;;23.43;51.57
10700;BME280;5401;41.986;21.452;2023-09-08T06:01:31;98659.47;;;23.40;51.49
10700;BME280;5401;41.986;21.452;2023-09-08T06:03:58;98666.06;;;23.34;51.94
10700;BME280;5401;41.986;21.452;2023-09-08T06:06:26;98662.06;;;23.27;51.31
10700;BME280;5401;41.986;21.452;2023-09-08T06:08:54;98664.56;;;23.19;51.97
10700;BME280;5401;41.986;21.452;2023-09-08T06:11:22;98676.13;;;23.11;52.43
10700;BME280;5401;41.986;21.452;2023-09-08T06:13:49;98676.91;;;23.11;52.44
10700;BME280;5401;41.986;21.452;2023-09-08T06:16:19;98681.59;;;23.06;52.05
10700;BME280;5401;41.986;21.452;2023-09-08T06:18:47;98676.47;;;22.99;52.11
10700;BME280;5401;41.986;21.452;2023-09-08T06:21:14;98678.91;;;23.01;52.20
10700;BME280;5401;41.986;21.452;2023-09-08T06:23:42;98682.72;;;23.00;52.80
10700;BME280;5401;41.986;21.452;2023-09-08T06:26:09;98684.38;;;22.96;52.94
10700;BME280;5401;41.986;21.452;2023-09-08T06:28:37;98687.38;;;22.99;52.67
10700;BME280;5401;41.986;21.452;2023-09-08T06:31:05;98678.94;;;22.96;53.03
10700;BME280;5401;41.986;21.452;2023-09-08T06:33:34;98688.19;;;23.05;52.79
10700;BME280;5401;41.986;21.452;2023-09-08T06:36:02;98696.91;;;23.02;53.14
10700;BME280;5401;41.986;21.452;2023-09-08T06:38:29;98691.72;;;23.05;52.83
10700;BME280;5401;41.986;21.452;2023-09-08T06:40:57;98707.19;;;23.15;52.96
10700;BME280;5401;41.986;21.452;2023-09-08T06:43:25;98706.91;;;23.21;53.13
10700;BME280;5401;41.986;21.452;2023-09-08T06:45:52;98704.66;;;23.28;52.82
10700;BME280;5401;41.986;21.452;2023-09-08T06:48:19;98708.72;;;23.35;53.09
10700;BME280;5401;41.986;21.452;2023-09-08T06:50:48;98707.78;;;23.45;52.70
10700;BME280;5401;41.986;21.452;2023-09-08T06:53:16;98713.50;;;23.53;52.46
10700;BME280;5401;41.986;21.452;2023-09-08T06:55:43;98707.19;;;23.53;52.73
10700;BME280;5401;41.986;21.452;2023-09-08T06:58:11;98711.56;;;23.54;52.61
10700;BME280;5401;41.986;21.452;2023-09-08T07:00:41;98712.34;;;23.59;52.71
10700;BME280;5401;41.986;21.452;2023-09-08T07:03:08;98709.84;;;23.67;52.37
10700;BME280;5401;41.986;21.452;2023-09-08T07:05:36;98710.06;;;23.71;52.26
10700;BME280;5401;41.986;21.452;2023-09-08T07:08:05;98710.84;;;23.76;52.32
10700;BME280;5401;41.986;21.452;2023-09-08T07:10:34;98712.25;;;23.74;52.29
10700;BME280;5401;41.986;21.452;2023-09-08T07:13:02;98721.19;;;23.79;52.58
10700;BME280;5401;41.986;21.452;2023-09-08T07:15:29;98716.31;;;23.76;52.23
10700;BME280;5401;41.986;21.452;2023-09-08T07:17:58;98714.91;;;23.79;52.39
10700;BME280;5401;41.986;21.452;2023-09-08T07:20:25;98713.38;;;23.68;52.55
10700;BME280;5401;41.986;21.452;2023-09-08T07:22:53;98711.25;;;23.60;52.73
10700;BME280;5401;41.986;21.452;2023-09-08T07:25:21;98714.19;;;23.68;52.68
10700;BME280;5401;41.986;21.452;2023-09-08T07:27:49;98714.44;;;23.72;52.29
10700;BME280;5401;41.986;21.452;2023-09-08T07:30:19;98720.69;;;23.77;51.93
10700;BME280;5401;41.986;21.452;2023-09-08T07:32:47;98722.25;;;23.83;52.34
10700;BME280;5401;41.986;21.452;2023-09-08T07:35:14;98719.13;;;23.95;52.12
10700;BME280;5401;41.986;21.452;2023-09-08T07:37:43;98723.13;;;24.07;52.00
10700;BME280;5401;41.986;21.452;2023-09-08T07:40:11;98714.53;;;24.18;52.01
10700;BME280;5401;41.986;21.452;2023-09-08T07:42:40;98707.66;;;24.21;51.69
10700;BME280;5401;41.986;21.452;2023-09-08T07:45:08;98712.56;;;24.47;51.79
10700;BME280;5401;41.986;21.452;2023-09-08T07:47:36;98713.66;;;24.69;51.07
10700;BME280;5401;41.986;21.452;2023-09-08T07:50:20;98713.69;;;24.87;51.16
10700;BME280;5401;41.986;21.452;2023-09-08T07:52:52;98710.69;;;25.07;50.98
10700;BME280;5401;41.986;21.452;2023-09-08T07:55:20;98661.28;;;24.94;50.29
10700;BME280;5401;41.986;21.452;2023-09-08T07:57:50;98718.75;;;25.53;50.39
10700;BME280;5401;41.986;21.452;2023-09-08T08:00:18;98708.06;;;25.70;49.94
10700;BME280;5401;41.986;21.452;2023-09-08T08:02:47;98712.00;;;25.96;49.09
10700;BME280;5401;41.986;21.452;2023-09-08T08:05:15;98715.78;;;26.13;49.07
10700;BME280;5401;41.986;21.452;2023-09-08T08:07:43;98711.66;;;26.29;48.79
10700;BME280;5401;41.986;21.452;2023-09-08T08:10:12;98716.53;;;26.45;48.30
10700;BME280;5401;41.986;21.452;2023-09-08T08:12:40;98715.72;;;26.58;48.13
10700;BME280;5401;41.986;21.452;2023-09-08T08:15:10;98710.63;;;26.78;48.33
10700;BME280;5401;41.986;21.452;2023-09-08T08:17:38;98706.38;;;26.99;47.48
10700;BME280;5401;41.986;21.452;2023-09-08T08:20:07;98710.66;;;27.26;47.21
10700;BME280;5401;41.986;21.452;2023-09-08T08:22:35;98708.25;;;27.47;47.50
10700;BME280;5401;41.986;21.452;2023-09-08T08:25:04;98702.00;;;27.76;46.28
10700;BME280;5401;41.986;21.452;2023-09-08T08:27:32;98703.41;;;28.17;46.19
10700;BME280;5401;41.986;21.452;2023-09-08T08:30:00;98703.56;;;28.51;45.49
10700;BME280;5401;41.986;21.452;2023-09-08T08:32:28;98698.03;;;28.81;45.07
10700;BME280;5401;41.986;21.452;2023-09-08T08:34:56;98687.03;;;29.06;44.50
10700;BME280;5401;41.986;21.452;2023-09-08T08:37:24;98699.91;;;29.61;43.85
10700;BME280;5401;41.986;21.452;2023-09-08T08:39:53;98694.97;;;30.08;43.02
10700;BME280;5401;41.986;21.452;2023-09-08T08:42:20;98695.00;;;30.53;42.58
10700;BME280;5401;41.986;21.452;2023-09-08T08:44:49;98700.13;;;31.00;42.35
10700;BME280;5401;41.986;21.452;2023-09-08T08:47:19;98694.78;;;31.44;41.16
10700;BME280;5401;41.986;21.452;2023-09-08T08:49:48;98700.91;;;31.70;40.51
10700;BME280;5401;41.986;21.452;2023-09-08T08:52:17;98696.75;;;31.64;40.24
10700;BME280;5401;41.986;21.452;2023-09-08T08:54:45;98686.28;;;31.49;40.35
10700;BME280;5401;41.986;21.452;2023-09-08T08:57:14;98691.59;;;31.54;39.99
10700;BME280;5401;41.986;21.452;2023-09-08T08:59:42;98683.91;;;31.60;40.16
10700;BME280;5401;41.986;21.452;2023-09-08T09:02:11;98683.81;;;31.88;39.70
10700;BME280;5401;41.986;21.452;2023-09-08T09:04:40;98677.41;;;32.08;39.24
10700;BME280;5401;41.986;21.452;2023-09-08T09:07:10;98680.38;;;32.35;38.74
10700;BME280;5401;41.986;21.452;2023-09-08T09:09:38;98679.13;;;32.56;38.86
10700;BME280;5401;41.986;21.452;2023-09-08T09:12:06;98685.38;;;32.77;38.03
10700;BME280;5401;41.986;21.452;2023-09-08T09:14:34;98676.97;;;32.85;38.08
10700;BME280;5401;41.986;21.452;2023-09-08T09:17:02;98677.63;;;32.59;37.71
10700;BME280;5401;41.986;21.452;2023-09-08T09:19:31;98671.94;;;32.43;37.37
10700;BME280;5401;41.986;21.452;2023-09-08T09:21:59;98667.44;;;32.39;37.59
10700;BME280;5401;41.986;21.452;2023-09-08T09:24:32;98671.09;;;32.31;37.81
10700;BME280;5401;41.986;21.452;2023-09-08T09:27:01;98664.63;;;32.27;37.04
10700;BME280;5401;41.986;21.452;2023-09-08T09:29:31;98661.44;;;32.37;37.51
10700;BME280;5401;41.986;21.452;2023-09-08T09:32:03;98656.38;;;32.51;36.96
10700;BME280;5401;41.986;21.452;2023-09-08T09:34:31;98652.09;;;32.53;36.96
10700;BME280;5401;41.986;21.452;2023-09-08T09:36:59;98647.59;;;32.61;36.88
10700;BME280;5401;41.986;21.452;2023-09-08T09:39:27;98636.03;;;32.71;36.15
10700;BME280;5401;41.986;21.452;2023-09-08T09:41:57;98639.38;;;32.88;35.90
10700;BME280;5401;41.986;21.452;2023-09-08T09:44:26;98637.19;;;32.93;35.90
10700;BME280;5401;41.986;21.452;2023-09-08T09:46:54;98634.16;;;32.86;35.88
10700;BME280;5401;41.986;21.452;2023-09-08T09:49:21;98638.44;;;32.84;35.75
10700;BME280;5401;41.986;21.452;2023-09-08T09:51:50;98630.34;;;32.79;35.71
10700;BME280;5401;41.986;21.452;2023-09-08T09:54:20;98641.00;;;32.77;35.19
10700;BME280;5401;41.986;21.452;2023-09-08T09:56:47;98630.03;;;32.69;35.60
10700;BME280;5401;41.986;21.452;2023-09-08T09:59:19;98625.50;;;32.64;35.33
10700;BME280;5401;41.986;21.452;2023-09-08T10:01:47;98621.69;;;32.57;35.12
10700;BME280;5401;41.986;21.452;2023-09-08T10:04:15;98619.97;;;32.52;35.06
10700;BME280;5401;41.986;21.452;2023-09-08T10:06:43;98616.03;;;32.53;35.14
10700;BME280;5401;41.986;21.452;2023-09-08T10:09:12;98608.44;;;32.50;35.30
10700;BME280;5401;41.986;21.452;2023-09-08T10:11:44;98614.53;;;32.56;34.67
10700;BME280;5401;41.986;21.452;2023-09-08T10:14:15;98609.44;;;32.70;34.82
10700;BME280;5401;41.986;21.452;2023-09-08T10:16:45;98609.44;;;32.58;35.12
10700;BME280;5401;41.986;21.452;2023-09-08T10:19:16;98594.03;;;32.72;34.79
10700;BME280;5401;41.986;21.452;2023-09-08T10:21:45;98587.69;;;32.72;34.44
10700;BME280;5401;41.986;21.452;2023-09-08T10:24:14;98602.97;;;32.89;34.22
10700;BME280;5401;41.986;21.452;2023-09-08T10:26:45;98593.25;;;32.83;34.45
10700;BME280;5401;41.986;21.452;2023-09-08T10:29:14;98594.44;;;32.82;34.42
10700;BME280;5401;41.986;21.452;2023-09-08T10:31:45;98596.72;;;32.80;34.72
10700;BME280;5401;41.986;21.452;2023-09-08T10:34:13;98600.19;;;32.77;34.46
10700;BME280;5401;41.986;21.452;2023-09-08T10:36:40;98594.28;;;32.79;34.49
10700;BME280;5401;41.986;21.452;2023-09-08T10:39:30;98587.56;;;32.92;34.25
10700;BME280;5401;41.986;21.452;2023-09-08T10:42:20;98579.59;;;32.90;33.71
10700;BME280;5401;41.986;21.452;2023-09-08T10:45:01;98584.25;;;32.74;33.88
10700;BME280;5401;41.986;21.452;2023-09-08T10:47:35;98574.41;;;32.77;33.98
10700;BME280;5401;41.986;21.452;2023-09-08T10:50:07;98590.66;;;33.02;33.76
10700;BME280;5401;41.986;21.452;2023-09-08T10:52:42;98593.59;;;33.33;33.49
10700;BME280;5401;41.986;21.452;2023-09-08T10:55:11;98582.16;;;33.61;33.09
10700;BME280;5401;41.986;21.452;2023-09-08T10:57:44;98578.34;;;33.96;33.00
10700;BME280;5401;41.986;21.452;2023-09-08T11:00:17;98581.47;;;34.25;32.52
10700;BME280;5401;41.986;21.452;2023-09-08T11:02:50;98580.19;;;34.35;32.78
10700;BME280;5401;41.986;21.452;2023-09-08T11:05:17;98575.03;;;34.52;32.41
10700;BME280;5401;41.986;21.452;2023-09-08T11:07:48;98578.19;;;34.35;32.20
10700;BME280;5401;41.986;21.452;2023-09-08T11:10:16;98569.91;;;34.23;32.27
10700;BME280;5401;41.986;21.452;2023-09-08T11:12:44;98563.84;;;34.33;32.01
10700;BME280;5401;41.986;21.452;2023-09-08T11:15:11;98565.63;;;34.41;31.89
10700;BME280;5401;41.986;21.452;2023-09-08T11:17:39;98568.59;;;34.48;31.85
10700;BME280;5401;41.986;21.452;2023-09-08T11:20:09;98562.75;;;34.53;31.60
10700;BME280;5401;41.986;21.452;2023-09-08T11:22:39;98561.84;;;34.64;31.65
10700;BME280;5401;41.986;21.452;2023-09-08T11:25:07;98549.66;;;34.72;31.21
10700;BME280;5401;41.986;21.452;2023-09-08T11:27:37;98542.22;;;34.76;31.26
10700;BME280;5401;41.986;21.452;2023-09-08T11:30:06;98541.53;;;34.79;31.52
10700;BME280;5401;41.986;21.452;2023-09-08T11:32:36;98538.19;;;34.74;31.25
10700;BME280;5401;41.986;21.452;2023-09-08T11:35:04;98536.34;;;34.62;31.01
10700;BME280;5401;41.986;21.452;2023-09-08T11:37:37;98532.34;;;34.29;31.46
10700;BME280;5401;41.986;21.452;2023-09-08T11:40:06;98524.22;;;34.06;31.65
10700;BME280;5401;41.986;21.452;2023-09-08T11:42:38;98533.53;;;33.83;31.51
10700;BME280;5401;41.986;21.452;2023-09-08T11:45:11;98528.75;;;33.68;31.58
10700;BME280;5401;41.986;21.452;2023-09-08T11:47:42;98526.94;;;33.60;31.81
10700;BME280;5401;41.986;21.452;2023-09-08T11:50:10;98525.97;;;33.83;31.61
10700;BME280;5401;41.986;21.452;2023-09-08T11:52:48;98514.41;;;34.12;31.42
10700;BME280;5401;41.986;21.452;2023-09-08T11:55:20;98519.59;;;34.44;31.14
10700;BME280;5401;41.986;21.452;2023-09-08T11:57:49;98516.09;;;34.47;30.88
10700;BME280;5401;41.986;21.452;2023-09-08T12:00:18;98516.25;;;34.54;30.72
10700;BME280;5401;41.986;21.452;2023-09-08T12:02:49;98516.34;;;34.57;31.23
10700;BME280;5401;41.986;21.452;2023-09-08T12:05:24;98507.69;;;34.28;30.87
10700;BME280;5401;41.986;21.452;2023-09-08T12:07:55;98512.09;;;34.29;30.76
10700;BME280;5401;41.986;21.452;2023-09-08T12:10:25;98500.69;;;34.18;30.72
10700;BME280;5401;41.986;21.452;2023-09-08T12:12:54;98507.59;;;34.09;30.47
10700;BME280;5401;41.986;21.452;2023-09-08T12:15:32;98477.63;;;33.57;30.54
10700;BME280;5401;41.986;21.452;2023-09-08T12:18:06;98485.25;;;33.45;30.92
10700;BME280;5401;41.986;21.452;2023-09-08T12:20:37;98501.13;;;33.59;30.63
10700;BME280;5401;41.986;21.452;2023-09-08T12:23:15;98499.09;;;33.87;30.77
10700;BME280;5401;41.986;21.452;2023-09-08T12:25:46;98478.66;;;34.10;30.50
10700;BME280;5401;41.986;21.452;2023-09-08T12:28:17;98491.16;;;34.50;30.33
10700;BME280;5401;41.986;21.452;2023-09-08T12:30:44;98492.19;;;34.61;30.39
10700;BME280;5401;41.986;21.452;2023-09-08T12:33:12;98481.28;;;34.71;30.21
10700;BME280;5401;41.986;21.452;2023-09-08T12:35:42;98488.50;;;34.91;30.16
10700;BME280;5401;41.986;21.452;2023-09-08T12:38:12;98480.28;;;34.98;29.74
10700;BME280;5401;41.986;21.452;2023-09-08T12:40:40;98478.75;;;35.00;29.98
10700;BME280;5401;41.986;21.452;2023-09-08T12:43:08;98476.78;;;35.01;29.99
10700;BME280;5401;41.986;21.452;2023-09-08T12:45:35;98482.13;;;35.09;29.58
10700;BME280;5401;41.986;21.452;2023-09-08T12:48:05;98480.81;;;35.22;29.91
10700;BME280;5401;41.986;21.452;2023-09-08T12:50:32;98478.97;;;35.29;29.28
10700;BME280;5401;41.986;21.452;2023-09-08T12:53:00;98477.06;;;35.33;29.33
10700;BME280;5401;41.986;21.452;2023-09-08T12:55:29;98477.75;;;35.27;29.73
10700;BME280;5401;41.986;21.452;2023-09-08T12:57:56;98478.09;;;35.26;29.50
10700;BME280;5401;41.986;21.452;2023-09-08T13:00:24;98457.50;;;35.11;29.18
10700;BME280;5401;41.986;21.452;2023-09-08T13:02:51;98470.91;;;35.25;29.03
10700;BME280;5401;41.986;21.452;2023-09-08T13:05:19;98434.63;;;35.02;29.08
10700;BME280;5401;41.986;21.452;2023-09-08T13:07:46;98459.41;;;35.07;29.49
10700;BME280;5401;41.986;21.452;2023-09-08T13:10:14;98459.44;;;34.89;29.49